sensor_id;sensor_type;location;lat;lon;timestamp;P1;durP1;ratioP1;P2;durP2;ratioP2
63218;SDS011;49320;52.512;13.448;2023-04-25T00:02:13;2.90;;;1.73;;
63218;SDS011;49320;52.512;13.448;2023-04-25T00:04:40;1.98;;;1.70;;
63218;SDS011;49320;52.512;13.448;2023-04-25T00:07:08;8.05;;;1.63;;
63218;SDS011;49320;52.512;13.448;2023-04-25T00:09:35;2.22;;;1.73;;
63218;SDS011;49320;52.512;13.448;2023-04-25T00:12:02;1.60;;;1.50;;
63218;SDS011;49320;52.512;13.448;2023-04-25T00:14:29;3.05;;;1.45;;
63218;SDS011;49320;52.512;13.448;2023-04-25T00:16:56;3.08;;;1.40;;
63218;SDS011;49320;52.512;13.448;2023-04-25T00:19:23;2.55;;;1.50;;
63218;SDS011;49320;52.512;13.448;2023-04-25T00:21:50;2.45;;;1.48;;
63218;SDS011;49320;52.512;13.448;2023-04-25T00:24:17;2.53;;;1.27;;
63218;SDS011;49320;52.512;13.448;2023-04-25T00:26:44;2.55;;;1.25;;
63218;SDS011;49320;52.512;13.448;2023-04-25T00:29:11;2.53;;;1.48;;
63218;SDS011;49320;52.512;13.448;2023-04-25T00:31:38;3.08;;;1.42;;
63218;SDS011;49320;52.512;13.448;2023-04-25T00:34:05;3.13;;;1.50;;
63218;SDS011;49320;52.512;13.448;2023-04-25T00:36:33;2.33;;;1.50;;
63218;SDS011;49320;52.512;13.448;2023-04-25T00:39:00;3.30;;;1.38;;
63218;SDS011;49320;52.512;13.448;2023-04-25T00:41:27;2.70;;;1.50;;
63218;SDS011;49320;52.512;13.448;2023-04-25T00:43:54;6.00;;;1.98;;
63218;SDS011;49320;52.512;13.448;2023-04-25T00:46:22;3.95;;;2.00;;
63218;SDS011;49320;52.512;13.448;2023-04-25T00:48:49;3.25;;;1.50;;
63218;SDS011;49320;52.512;13.448;2023-04-25T00:51:16;3.08;;;1.55;;
63218;SDS011;49320;52.512;13.448;2023-04-25T00:53:47;2.55;;;1.30;;
63218;SDS011;49320;52.512;13.448;2023-04-25T00:56:16;3.65;;;1.75;;
63218;SDS011;49320;52.512;13.448;2023-04-25T00:58:44;2.75;;;1.60;;
63218;SDS011;49320;52.512;13.448;2023-04-25T01:01:11;3.55;;;1.77;;
63218;SDS011;49320;52.512;13.448;2023-04-25T01:03:39;3.33;;;1.70;;
63218;SDS011;49320;52.512;13.448;2023-04-25T01:06:08;4.20;;;1.77;;
63218;SDS011;49320;52.512;13.448;2023-04-25T01:08:37;2.13;;;1.70;;
63218;SDS011;49320;52.512;13.448;2023-04-25T01:11:05;3.28;;;1.83;;
63218;SDS011;49320;52.512;13.448;2023-04-25T01:13:32;2.70;;;1.77;;
63218;SDS011;49320;52.512;13.448;2023-04-25T01:16:00;4.47;;;1.90;;
63218;SDS011;49320;52.512;13.448;2023-04-25T01:18:29;3.88;;;1.83;;
63218;SDS011;49320;52.512;13.448;2023-04-25T01:20:55;3.67;;;1.88;;
63218;SDS011;49320;52.512;13.448;2023-04-25T01:23:33;2.88;;;1.70;;
63218;SDS011;49320;52.512;13.448;2023-04-25T01:26:00;4.55;;;1.77;;
63218;SDS011;49320;52.512;13.448;2023-04-25T01:28:27;2.42;;;1.40;;
63218;SDS011;49320;52.512;13.448;2023-04-25T01:30:55;3.70;;;1.98;;
63218;SDS011;49320;52.512;13.448;2023-04-25T01:33:23;4.00;;;2.25;;
63218;SDS011;49320;52.512;13.448;2023-04-25T01:35:50;2.65;;;1.80;;
63218;SDS011;49320;52.512;13.448;2023-04-25T01:38:17;3.63;;;2.08;;
63218;SDS011;49320;52.512;13.448;2023-04-25T01:40:45;4.45;;;1.98;;
63218;SDS011;49320;52.512;13.448;2023-04-25T01:43:15;3.95;;;2.00;;
63218;SDS011;49320;52.512;13.448;2023-04-25T01:45:43;2.65;;;1.75;;
63218;SDS011;49320;52.512;13.448;2023-04-25T01:48:10;4.07;;;2.13;;
63218;SDS011;49320;52.512;13.448;2023-04-25T01:50:40;4.70;;;1.90;;
63218;SDS011;49320;52.512;13.448;2023-04-25T01:53:07;3.47;;;1.80;;
63218;SDS011;49320;52.512;13.448;2023-04-25T01:55:37;3.15;;;1.98;;
63218;SDS011;49320;52.512;13.448;2023-04-25T01:58:04;3.65;;;2.28;;
63218;SDS011;49320;52.512;13.448;2023-04-25T02:00:36;4.20;;;2.22;;
63218;SDS011;49320;52.512;13.448;2023-04-25T02:03:07;3.78;;;2.17;;
63218;SDS011;49320;52.512;13.448;2023-04-25T02:05:38;4.00;;;2.00;;
63218;SDS011;49320;52.512;13.448;2023-04-25T02:08:06;5.25;;;2.08;;
63218;SDS011;49320;52.512;13.448;2023-04-25T02:10:35;3.22;;;1.90;;
63218;SDS011;49320;52.512;13.448;2023-04-25T02:13:02;3.70;;;1.95;;
63218;SDS011;49320;52.512;13.448;2023-04-25T02:15:31;4.55;;;2.10;;
63218;SDS011;49320;52.512;13.448;2023-04-25T02:17:58;3.85;;;2.10;;
63218;SDS011;49320;52.512;13.448;2023-04-25T02:20:26;5.53;;;2.17;;
63218;SDS011;49320;52.512;13.448;2023-04-25T02:22:56;3.08;;;2.10;;
63218;SDS011;49320;52.512;13.448;2023-04-25T02:25:23;4.97;;;2.45;;
63218;SDS011;49320;52.512;13.448;2023-04-25T02:27:50;2.97;;;2.28;;
63218;SDS011;49320;52.512;13.448;2023-04-25T02:30:17;3.58;;;2.40;;
63218;SDS011;49320;52.512;13.448;2023-04-25T02:32:44;4.30;;;2.38;;
63218;SDS011;49320;52.512;13.448;2023-04-25T02:35:12;5.90;;;2.28;;
63218;SDS011;49320;52.512;13.448;2023-04-25T02:37:39;3.72;;;2.30;;
63218;SDS011;49320;52.512;13.448;2023-04-25T02:40:06;3.65;;;2.00;;
63218;SDS011;49320;52.512;13.448;2023-04-25T02:42:34;3.97;;;2.15;;
63218;SDS011;49320;52.512;13.448;2023-04-25T02:45:01;3.53;;;2.22;;
63218;SDS011;49320;52.512;13.448;2023-04-25T02:47:29;3.60;;;2.17;;
63218;SDS011;49320;52.512;13.448;2023-04-25T02:49:56;4.72;;;2.20;;
63218;SDS011;49320;52.512;13.448;2023-04-25T02:52:24;3.65;;;2.25;;
63218;SDS011;49320;52.512;13.448;2023-04-25T02:54:51;5.05;;;2.33;;
63218;SDS011;49320;52.512;13.448;2023-04-25T02:57:18;3.08;;;2.03;;
63218;SDS011;49320;52.512;13.448;2023-04-25T02:59:44;4.65;;;2.80;;
63218;SDS011;49320;52.512;13.448;2023-04-25T03:02:11;2.17;;;1.98;;
63218;SDS011;49320;52.512;13.448;2023-04-25T03:04:38;4.82;;;2.42;;
63218;SDS011;49320;52.512;13.448;2023-04-25T03:07:06;4.88;;;2.70;;
63218;SDS011;49320;52.512;13.448;2023-04-25T03:09:33;5.38;;;2.63;;
63218;SDS011;49320;52.512;13.448;2023-04-25T03:12:00;6.45;;;2.65;;
63218;SDS011;49320;52.512;13.448;2023-04-25T03:14:27;4.55;;;2.95;;
63218;SDS011;49320;52.512;13.448;2023-04-25T03:16:54;5.47;;;2.70;;
63218;SDS011;49320;52.512;13.448;2023-04-25T03:19:21;4.07;;;2.65;;
63218;SDS011;49320;52.512;13.448;2023-04-25T03:21:48;4.78;;;2.42;;
63218;SDS011;49320;52.512;13.448;2023-04-25T03:24:14;6.00;;;2.80;;
63218;SDS011;49320;52.512;13.448;2023-04-25T03:26:42;3.75;;;2.42;;
63218;SDS011;49320;52.512;13.448;2023-04-25T03:29:09;4.68;;;2.53;;
63218;SDS011;49320;52.512;13.448;2023-04-25T03:31:36;3.90;;;2.35;;
63218;SDS011;49320;52.512;13.448;2023-04-25T03:34:02;4.30;;;2.58;;
63218;SDS011;49320;52.512;13.448;2023-04-25T03:36:29;4.35;;;2.83;;
63218;SDS011;49320;52.512;13.448;2023-04-25T03:38:56;5.68;;;2.65;;
63218;SDS011;49320;52.512;13.448;2023-04-25T03:41:23;6.28;;;2.60;;
63218;SDS011;49320;52.512;13.448;2023-04-25T03:43:51;4.85;;;2.72;;
63218;SDS011;49320;52.512;13.448;2023-04-25T03:46:18;4.85;;;2.75;;
63218;SDS011;49320;52.512;13.448;2023-04-25T03:48:45;6.60;;;3.10;;
63218;SDS011;49320;52.512;13.448;2023-04-25T03:51:11;3.97;;;2.58;;
63218;SDS011;49320;52.512;13.448;2023-04-25T03:53:38;4.90;;;2.78;;
63218;SDS011;49320;52.512;13.448;2023-04-25T03:56:05;4.38;;;2.40;;
63218;SDS011;49320;52.512;13.448;2023-04-25T03:58:33;4.13;;;2.42;;
63218;SDS011;49320;52.512;13.448;2023-04-25T04:00:59;4.22;;;2.55;;
63218;SDS011;49320;52.512;13.448;2023-04-25T04:03:28;3.95;;;2.95;;
63218;SDS011;49320;52.512;13.448;2023-04-25T04:05:55;3.58;;;2.63;;
63218;SDS011;49320;52.512;13.448;2023-04-25T04:08:22;3.53;;;2.22;;
63218;SDS011;49320;52.512;13.448;2023-04-25T04:10:49;7.20;;;3.20;;
63218;SDS011;49320;52.512;13.448;2023-04-25T04:13:16;4.35;;;2.53;;
63218;SDS011;49320;52.512;13.448;2023-04-25T04:15:43;5.20;;;2.70;;
63218;SDS011;49320;52.512;13.448;2023-04-25T04:18:10;4.30;;;2.58;;
63218;SDS011;49320;52.512;13.448;2023-04-25T04:20:36;6.00;;;2.95;;
63218;SDS011;49320;52.512;13.448;2023-04-25T04:23:03;4.95;;;2.38;;
63218;SDS011;49320;52.512;13.448;2023-04-25T04:25:31;3.42;;;2.25;;
63218;SDS011;49320;52.512;13.448;2023-04-25T04:27:58;5.07;;;2.95;;
63218;SDS011;49320;52.512;13.448;2023-04-25T04:30:25;4.47;;;2.47;;
63218;SDS011;49320;52.512;13.448;2023-04-25T04:32:51;5.43;;;2.40;;
63218;SDS011;49320;52.512;13.448;2023-04-25T04:35:18;6.22;;;2.45;;
63218;SDS011;49320;52.512;13.448;2023-04-25T04:37:45;5.82;;;2.40;;
63218;SDS011;49320;52.512;13.448;2023-04-25T04:40:12;3.35;;;2.13;;
63218;SDS011;49320;52.512;13.448;2023-04-25T04:42:42;3.95;;;2.58;;
63218;SDS011;49320;52.512;13.448;2023-04-25T04:45:09;3.60;;;2.60;;
63218;SDS011;49320;52.512;13.448;2023-04-25T04:47:36;4.20;;;2.50;;
63218;SDS011;49320;52.512;13.448;2023-04-25T04:50:06;4.80;;;2.63;;
63218;SDS011;49320;52.512;13.448;2023-04-25T04:52:36;4.82;;;2.70;;
63218;SDS011;49320;52.512;13.448;2023-04-25T04:55:04;4.15;;;2.42;;
63218;SDS011;49320;52.512;13.448;2023-04-25T04:57:32;5.40;;;2.95;;
63218;SDS011;49320;52.512;13.448;2023-04-25T04:59:59;4.38;;;2.40;;
63218;SDS011;49320;52.512;13.448;2023-04-25T05:02:26;4.75;;;2.42;;
63218;SDS011;49320;52.512;13.448;2023-04-25T05:04:55;5.65;;;3.17;;
63218;SDS011;49320;52.512;13.448;2023-04-25T05:07:23;5.30;;;2.40;;
63218;SDS011;49320;52.512;13.448;2023-04-25T05:09:49;5.07;;;2.60;;
63218;SDS011;49320;52.512;13.448;2023-04-25T05:12:16;5.85;;;2.63;;
63218;SDS011;49320;52.512;13.448;2023-04-25T05:14:43;4.97;;;2.58;;
63218;SDS011;49320;52.512;13.448;2023-04-25T05:17:10;4.53;;;2.60;;
63218;SDS011;49320;52.512;13.448;2023-04-25T05:19:37;3.38;;;2.28;;
63218;SDS011;49320;52.512;13.448;2023-04-25T05:22:05;4.85;;;2.97;;
63218;SDS011;49320;52.512;13.448;2023-04-25T05:24:32;3.95;;;2.67;;
63218;SDS011;49320;52.512;13.448;2023-04-25T05:26:58;6.25;;;3.03;;
63218;SDS011;49320;52.512;13.448;2023-04-25T05:29:25;4.85;;;3.03;;
63218;SDS011;49320;52.512;13.448;2023-04-25T05:31:52;3.42;;;2.45;;
63218;SDS011;49320;52.512;13.448;2023-04-25T05:34:19;3.47;;;2.25;;
63218;SDS011;49320;52.512;13.448;2023-04-25T05:36:46;3.65;;;2.20;;
63218;SDS011;49320;52.512;13.448;2023-04-25T05:39:15;5.40;;;2.28;;
63218;SDS011;49320;52.512;13.448;2023-04-25T05:41:45;3.25;;;2.17;;
63218;SDS011;49320;52.512;13.448;2023-04-25T05:44:12;4.28;;;2.50;;
63218;SDS011;49320;52.512;13.448;2023-04-25T05:46:39;5.00;;;2.83;;
63218;SDS011;49320;52.512;13.448;2023-04-25T05:49:06;9.27;;;3.13;;
63218;SDS011;49320;52.512;13.448;2023-04-25T05:51:33;6.00;;;2.55;;
63218;SDS011;49320;52.512;13.448;2023-04-25T05:53:59;6.45;;;2.78;;
63218;SDS011;49320;52.512;13.448;2023-04-25T05:56:26;5.93;;;2.50;;
63218;SDS011;49320;52.512;13.448;2023-04-25T05:58:53;6.20;;;2.70;;
63218;SDS011;49320;52.512;13.448;2023-04-25T06:01:21;5.00;;;2.85;;
63218;SDS011;49320;52.512;13.448;2023-04-25T06:03:49;6.07;;;2.50;;
63218;SDS011;49320;52.512;13.448;2023-04-25T06:06:18;4.72;;;2.70;;
63218;SDS011;49320;52.512;13.448;2023-04-25T06:08:45;4.40;;;2.78;;
63218;SDS011;49320;52.512;13.448;2023-04-25T06:11:12;4.28;;;2.85;;
63218;SDS011;49320;52.512;13.448;2023-04-25T06:13:39;4.32;;;3.13;;
63218;SDS011;49320;52.512;13.448;2023-04-25T06:16:06;5.53;;;3.22;;
63218;SDS011;49320;52.512;13.448;2023-04-25T06:18:33;9.30;;;3.58;;
63218;SDS011;49320;52.512;13.448;2023-04-25T06:21:00;5.30;;;2.88;;
63218;SDS011;49320;52.512;13.448;2023-04-25T06:23:27;5.57;;;3.15;;
63218;SDS011;49320;52.512;13.448;2023-04-25T06:25:54;5.03;;;2.97;;
63218;SDS011;49320;52.512;13.448;2023-04-25T06:28:21;5.75;;;2.75;;
63218;SDS011;49320;52.512;13.448;2023-04-25T06:30:49;3.92;;;2.13;;
63218;SDS011;49320;52.512;13.448;2023-04-25T06:33:16;4.60;;;2.92;;
63218;SDS011;49320;52.512;13.448;2023-04-25T06:35:43;7.88;;;3.95;;
63218;SDS011;49320;52.512;13.448;2023-04-25T06:38:10;7.90;;;3.05;;
63218;SDS011;49320;52.512;13.448;2023-04-25T06:40:37;5.63;;;3.17;;
63218;SDS011;49320;52.512;13.448;2023-04-25T06:43:03;6.45;;;3.13;;
63218;SDS011;49320;52.512;13.448;2023-04-25T06:45:30;5.95;;;2.97;;
63218;SDS011;49320;52.512;13.448;2023-04-25T06:47:57;6.18;;;3.20;;
63218;SDS011;49320;52.512;13.448;2023-04-25T06:50:24;7.30;;;3.13;;
63218;SDS011;49320;52.512;13.448;2023-04-25T06:52:51;4.20;;;3.03;;
63218;SDS011;49320;52.512;13.448;2023-04-25T06:55:18;5.10;;;3.13;;
63218;SDS011;49320;52.512;13.448;2023-04-25T06:57:44;4.80;;;2.70;;
63218;SDS011;49320;52.512;13.448;2023-04-25T07:00:11;4.38;;;2.70;;
63218;SDS011;49320;52.512;13.448;2023-04-25T07:02:39;6.63;;;2.70;;
63218;SDS011;49320;52.512;13.448;2023-04-25T07:05:08;4.00;;;2.83;;
63218;SDS011;49320;52.512;13.448;2023-04-25T07:07:35;7.25;;;2.92;;
63218;SDS011;49320;52.512;13.448;2023-04-25T07:10:02;5.20;;;2.65;;
63218;SDS011;49320;52.512;13.448;2023-04-25T07:12:29;5.28;;;3.20;;
63218;SDS011;49320;52.512;13.448;2023-04-25T07:14:56;5.10;;;2.83;;
63218;SDS011;49320;52.512;13.448;2023-04-25T07:17:23;4.55;;;2.72;;
63218;SDS011;49320;52.512;13.448;2023-04-25T07:19:50;5.00;;;3.20;;
63218;SDS011;49320;52.512;13.448;2023-04-25T07:22:16;7.07;;;3.05;;
63218;SDS011;49320;52.512;13.448;2023-04-25T07:24:43;4.43;;;2.80;;
63218;SDS011;49320;52.512;13.448;2023-04-25T07:27:14;4.35;;;2.97;;
63218;SDS011;49320;52.512;13.448;2023-04-25T07:29:41;4.68;;;3.03;;
63218;SDS011;49320;52.512;13.448;2023-04-25T07:32:08;3.95;;;2.70;;
63218;SDS011;49320;52.512;13.448;2023-04-25T07:34:36;4.68;;;2.72;;
63218;SDS011;49320;52.512;13.448;2023-04-25T07:37:04;4.68;;;2.70;;
63218;SDS011;49320;52.512;13.448;2023-04-25T07:39:32;4.85;;;2.70;;
63218;SDS011;49320;52.512;13.448;2023-04-25T07:41:58;5.93;;;3.65;;
63218;SDS011;49320;52.512;13.448;2023-04-25T07:44:26;5.85;;;2.50;;
63218;SDS011;49320;52.512;13.448;2023-04-25T07:46:53;5.43;;;3.40;;
63218;SDS011;49320;52.512;13.448;2023-04-25T07:49:20;7.55;;;3.40;;
63218;SDS011;49320;52.512;13.448;2023-04-25T07:51:46;6.53;;;2.92;;
63218;SDS011;49320;52.512;13.448;2023-04-25T07:54:13;6.40;;;3.13;;
63218;SDS011;49320;52.512;13.448;2023-04-25T07:56:44;7.75;;;2.78;;
63218;SDS011;49320;52.512;13.448;2023-04-25T07:59:18;8.63;;;3.17;;
63218;SDS011;49320;52.512;13.448;2023-04-25T08:01:45;8.18;;;3.42;;
63218;SDS011;49320;52.512;13.448;2023-04-25T08:04:12;9.02;;;3.60;;
63218;SDS011;49320;52.512;13.448;2023-04-25T08:06:39;6.53;;;3.13;;
63218;SDS011;49320;52.512;13.448;2023-04-25T08:09:09;7.85;;;3.05;;
63218;SDS011;49320;52.512;13.448;2023-04-25T08:11:36;5.05;;;2.63;;
63218;SDS011;49320;52.512;13.448;2023-04-25T08:14:04;9.60;;;3.13;;
63218;SDS011;49320;52.512;13.448;2023-04-25T08:16:31;7.72;;;3.28;;
63218;SDS011;49320;52.512;13.448;2023-04-25T08:18:59;13.10;;;2.95;;
63218;SDS011;49320;52.512;13.448;2023-04-25T08:21:26;7.82;;;2.95;;
63218;SDS011;49320;52.512;13.448;2023-04-25T08:23:53;8.35;;;2.92;;
63218;SDS011;49320;52.512;13.448;2023-04-25T08:26:20;13.73;;;3.42;;
63218;SDS011;49320;52.512;13.448;2023-04-25T08:28:47;7.20;;;3.38;;
63218;SDS011;49320;52.512;13.448;2023-04-25T08:31:14;10.93;;;3.20;;
63218;SDS011;49320;52.512;13.448;2023-04-25T08:33:41;10.20;;;3.50;;
63218;SDS011;49320;52.512;13.448;2023-04-25T08:36:08;10.20;;;3.15;;
63218;SDS011;49320;52.512;13.448;2023-04-25T08:38:34;9.40;;;3.53;;
63218;SDS011;49320;52.512;13.448;2023-04-25T08:41:02;9.77;;;3.08;;
63218;SDS011;49320;52.512;13.448;2023-04-25T08:43:31;9.52;;;3.03;;
63218;SDS011;49320;52.512;13.448;2023-04-25T08:46:01;9.25;;;3.17;;
63218;SDS011;49320;52.512;13.448;2023-04-25T08:48:28;8.48;;;2.63;;
63218;SDS011;49320;52.512;13.448;2023-04-25T08:51:02;7.25;;;2.85;;
63218;SDS011;49320;52.512;13.448;2023-04-25T08:53:38;15.68;;;3.30;;
63218;SDS011;49320;52.512;13.448;2023-04-25T08:56:08;8.35;;;2.88;;
63218;SDS011;49320;52.512;13.448;2023-04-25T08:58:39;9.40;;;3.15;;
63218;SDS011;49320;52.512;13.448;2023-04-25T09:01:06;10.60;;;3.28;;
63218;SDS011;49320;52.512;13.448;2023-04-25T09:03:33;8.68;;;3.42;;
63218;SDS011;49320;52.512;13.448;2023-04-25T09:06:01;14.43;;;4.05;;
63218;SDS011;49320;52.512;13.448;2023-04-25T09:08:29;11.52;;;3.30;;
63218;SDS011;49320;52.512;13.448;2023-04-25T09:10:56;9.23;;;3.05;;
63218;SDS011;49320;52.512;13.448;2023-04-25T09:13:24;12.65;;;3.30;;
63218;SDS011;49320;52.512;13.448;2023-04-25T09:15:54;8.85;;;2.55;;
63218;SDS011;49320;52.512;13.448;2023-04-25T09:20:57;10.80;;;3.10;;
63218;SDS011;49320;52.512;13.448;2023-04-25T09:23:40;7.38;;;2.80;;
63218;SDS011;49320;52.512;13.448;2023-04-25T09:26:16;10.45;;;2.78;;
63218;SDS011;49320;52.512;13.448;2023-04-25T09:28:47;8.70;;;3.05;;
63218;SDS011;49320;52.512;13.448;2023-04-25T09:31:23;7.47;;;2.70;;
63218;SDS011;49320;52.512;13.448;2023-04-25T09:33:50;11.68;;;2.85;;
63218;SDS011;49320;52.512;13.448;2023-04-25T09:36:27;10.48;;;2.85;;
63218;SDS011;49320;52.512;13.448;2023-04-25T09:38:57;9.63;;;2.70;;
63218;SDS011;49320;52.512;13.448;2023-04-25T09:41:26;8.75;;;3.38;;
63218;SDS011;49320;52.512;13.448;2023-04-25T09:43:56;8.25;;;2.88;;
63218;SDS011;49320;52.512;13.448;2023-04-25T09:46:32;9.65;;;2.95;;
63218;SDS011;49320;52.512;13.448;2023-04-25T09:49:08;5.45;;;2.22;;
63218;SDS011;49320;52.512;13.448;2023-04-25T09:51:34;7.20;;;2.65;;
63218;SDS011;49320;52.512;13.448;2023-04-25T09:54:01;8.07;;;2.38;;
63218;SDS011;49320;52.512;13.448;2023-04-25T09:56:29;9.40;;;2.53;;
63218;SDS011;49320;52.512;13.448;2023-04-25T09:59:02;7.90;;;2.40;;
63218;SDS011;49320;52.512;13.448;2023-04-25T10:01:30;7.88;;;2.30;;
63218;SDS011;49320;52.512;13.448;2023-04-25T10:03:57;6.68;;;2.15;;
63218;SDS011;49320;52.512;13.448;2023-04-25T10:06:26;7.05;;;2.33;;
63218;SDS011;49320;52.512;13.448;2023-04-25T10:08:54;6.28;;;2.10;;
63218;SDS011;49320;52.512;13.448;2023-04-25T10:11:22;5.57;;;1.80;;
63218;SDS011;49320;52.512;13.448;2023-04-25T10:13:52;9.13;;;2.50;;
63218;SDS011;49320;52.512;13.448;2023-04-25T10:16:19;7.75;;;3.05;;
63218;SDS011;49320;52.512;13.448;2023-04-25T10:18:48;6.47;;;2.28;;
63218;SDS011;49320;52.512;13.448;2023-04-25T10:21:16;5.63;;;2.50;;
63218;SDS011;49320;52.512;13.448;2023-04-25T10:23:46;8.45;;;2.45;;
63218;SDS011;49320;52.512;13.448;2023-04-25T10:26:15;7.78;;;2.38;;
63218;SDS011;49320;52.512;13.448;2023-04-25T10:28:55;7.65;;;1.85;;
63218;SDS011;49320;52.512;13.448;2023-04-25T10:31:27;6.10;;;2.55;;
63218;SDS011;49320;52.512;13.448;2023-04-25T10:33:59;6.00;;;1.90;;
63218;SDS011;49320;52.512;13.448;2023-04-25T10:36:27;7.03;;;2.60;;
63218;SDS011;49320;52.512;13.448;2023-04-25T10:38:58;6.03;;;2.33;;
63218;SDS011;49320;52.512;13.448;2023-04-25T10:41:47;6.03;;;2.35;;
63218;SDS011;49320;52.512;13.448;2023-04-25T10:44:22;5.30;;;2.40;;
63218;SDS011;49320;52.512;13.448;2023-04-25T10:46:52;6.20;;;2.53;;
63218;SDS011;49320;52.512;13.448;2023-04-25T10:49:35;7.20;;;2.70;;
63218;SDS011;49320;52.512;13.448;2023-04-25T10:52:11;6.85;;;2.38;;
63218;SDS011;49320;52.512;13.448;2023-04-25T10:54:52;4.88;;;2.30;;
63218;SDS011;49320;52.512;13.448;2023-04-25T10:57:29;9.77;;;2.85;;
63218;SDS011;49320;52.512;13.448;2023-04-25T11:00:00;5.38;;;2.35;;
63218;SDS011;49320;52.512;13.448;2023-04-25T11:02:43;6.32;;;2.15;;
63218;SDS011;49320;52.512;13.448;2023-04-25T11:05:32;4.68;;;1.95;;
63218;SDS011;49320;52.512;13.448;2023-04-25T11:08:25;6.88;;;2.38;;
63218;SDS011;49320;52.512;13.448;2023-04-25T11:11:15;6.07;;;2.30;;
63218;SDS011;49320;52.512;13.448;2023-04-25T11:13:44;5.43;;;1.88;;
63218;SDS011;49320;52.512;13.448;2023-04-25T11:16:14;4.10;;;1.77;;
63218;SDS011;49320;52.512;13.448;2023-04-25T11:18:52;6.57;;;2.08;;
63218;SDS011;49320;52.512;13.448;2023-04-25T11:21:19;11.43;;;3.03;;
63218;SDS011;49320;52.512;13.448;2023-04-25T11:23:46;8.07;;;2.67;;
63218;SDS011;49320;52.512;13.448;2023-04-25T11:26:14;8.32;;;2.60;;
63218;SDS011;49320;52.512;13.448;2023-04-25T11:28:44;7.85;;;2.30;;
63218;SDS011;49320;52.512;13.448;2023-04-25T11:31:11;5.90;;;2.10;;
63218;SDS011;49320;52.512;13.448;2023-04-25T11:33:38;5.50;;;2.15;;
63218;SDS011;49320;52.512;13.448;2023-04-25T11:36:07;5.88;;;1.98;;
63218;SDS011;49320;52.512;13.448;2023-04-25T11:38:34;7.60;;;2.20;;
63218;SDS011;49320;52.512;13.448;2023-04-25T11:41:00;6.85;;;2.30;;
63218;SDS011;49320;52.512;13.448;2023-04-25T11:43:28;7.70;;;2.30;;
63218;SDS011;49320;52.512;13.448;2023-04-25T11:45:55;5.25;;;2.20;;
63218;SDS011;49320;52.512;13.448;2023-04-25T11:48:22;4.88;;;1.98;;
63218;SDS011;49320;52.512;13.448;2023-04-25T11:50:51;5.72;;;1.88;;
63218;SDS011;49320;52.512;13.448;2023-04-25T11:53:20;7.75;;;2.17;;
63218;SDS011;49320;52.512;13.448;2023-04-25T11:55:47;6.75;;;2.08;;
63218;SDS011;49320;52.512;13.448;2023-04-25T11:58:14;7.22;;;2.25;;
63218;SDS011;49320;52.512;13.448;2023-04-25T12:00:41;4.90;;;2.30;;
63218;SDS011;49320;52.512;13.448;2023-04-25T12:03:17;5.00;;;2.10;;
63218;SDS011;49320;52.512;13.448;2023-04-25T12:05:45;8.25;;;2.42;;
63218;SDS011;49320;52.512;13.448;2023-04-25T12:08:13;4.97;;;1.90;;
63218;SDS011;49320;52.512;13.448;2023-04-25T12:10:42;5.97;;;2.22;;
63218;SDS011;49320;52.512;13.448;2023-04-25T12:13:19;4.60;;;1.83;;
63218;SDS011;49320;52.512;13.448;2023-04-25T12:15:50;6.60;;;2.25;;
63218;SDS011;49320;52.512;13.448;2023-04-25T12:18:22;6.43;;;1.90;;
63218;SDS011;49320;52.512;13.448;2023-04-25T12:20:52;5.78;;;2.10;;
63218;SDS011;49320;52.512;13.448;2023-04-25T12:23:26;8.88;;;2.50;;
63218;SDS011;49320;52.512;13.448;2023-04-25T12:25:54;6.95;;;2.13;;
63218;SDS011;49320;52.512;13.448;2023-04-25T12:28:22;6.40;;;2.60;;
63218;SDS011;49320;52.512;13.448;2023-04-25T12:31:00;5.10;;;2.15;;
63218;SDS011;49320;52.512;13.448;2023-04-25T12:33:31;4.18;;;1.60;;
63218;SDS011;49320;52.512;13.448;2023-04-25T12:36:02;7.00;;;2.45;;
63218;SDS011;49320;52.512;13.448;2023-04-25T12:38:35;6.78;;;2.90;;
63218;SDS011;49320;52.512;13.448;2023-04-25T12:41:05;4.97;;;2.00;;
63218;SDS011;49320;52.512;13.448;2023-04-25T12:43:33;6.70;;;2.85;;
63218;SDS011;49320;52.512;13.448;2023-04-25T12:46:00;8.43;;;1.98;;
63218;SDS011;49320;52.512;13.448;2023-04-25T12:48:27;5.65;;;2.00;;
63218;SDS011;49320;52.512;13.448;2023-04-25T12:50:54;7.50;;;1.90;;
63218;SDS011;49320;52.512;13.448;2023-04-25T12:53:21;4.38;;;1.90;;
63218;SDS011;49320;52.512;13.448;2023-04-25T12:55:52;7.38;;;2.28;;
63218;SDS011;49320;52.512;13.448;2023-04-25T12:58:19;4.35;;;2.50;;
63218;SDS011;49320;52.512;13.448;2023-04-25T13:00:46;5.68;;;2.10;;
63218;SDS011;49320;52.512;13.448;2023-04-25T13:03:14;5.30;;;2.30;;
63218;SDS011;49320;52.512;13.448;2023-04-25T13:05:41;3.30;;;1.45;;
63218;SDS011;49320;52.512;13.448;2023-04-25T13:08:08;3.47;;;1.50;;
63218;SDS011;49320;52.512;13.448;2023-04-25T13:10:35;3.67;;;1.60;;
63218;SDS011;49320;52.512;13.448;2023-04-25T13:13:04;4.72;;;1.30;;
63218;SDS011;49320;52.512;13.448;2023-04-25T13:15:31;3.88;;;1.20;;
63218;SDS011;49320;52.512;13.448;2023-04-25T13:17:58;7.05;;;1.90;;
63218;SDS011;49320;52.512;13.448;2023-04-25T13:20:25;4.10;;;1.75;;
63218;SDS011;49320;52.512;13.448;2023-04-25T13:22:52;3.03;;;1.63;;
63218;SDS011;49320;52.512;13.448;2023-04-25T13:25:19;4.45;;;1.40;;
63218;SDS011;49320;52.512;13.448;2023-04-25T13:27:46;4.85;;;1.67;;
63218;SDS011;49320;52.512;13.448;2023-04-25T13:30:12;4.45;;;1.63;;
63218;SDS011;49320;52.512;13.448;2023-04-25T13:32:40;5.88;;;1.77;;
63218;SDS011;49320;52.512;13.448;2023-04-25T13:35:08;2.92;;;1.40;;
63218;SDS011;49320;52.512;13.448;2023-04-25T13:37:38;4.28;;;1.67;;
63218;SDS011;49320;52.512;13.448;2023-04-25T13:40:07;8.23;;;1.77;;
63218;SDS011;49320;52.512;13.448;2023-04-25T13:42:37;4.25;;;1.45;;
63218;SDS011;49320;52.512;13.448;2023-04-25T13:45:06;5.43;;;1.58;;
63218;SDS011;49320;52.512;13.448;2023-04-25T13:47:34;4.53;;;1.65;;
63218;SDS011;49320;52.512;13.448;2023-04-25T13:50:01;7.50;;;2.00;;
63218;SDS011;49320;52.512;13.448;2023-04-25T13:52:30;4.80;;;1.80;;
63218;SDS011;49320;52.512;13.448;2023-04-25T13:54:57;7.15;;;1.77;;
63218;SDS011;49320;52.512;13.448;2023-04-25T13:57:24;3.20;;;1.33;;
63218;SDS011;49320;52.512;13.448;2023-04-25T13:59:51;5.82;;;1.85;;
63218;SDS011;49320;52.512;13.448;2023-04-25T14:02:19;5.07;;;1.75;;
63218;SDS011;49320;52.512;13.448;2023-04-25T14:04:46;5.35;;;1.38;;
63218;SDS011;49320;52.512;13.448;2023-04-25T14:07:14;3.85;;;1.88;;
63218;SDS011;49320;52.512;13.448;2023-04-25T14:09:45;3.72;;;1.52;;
63218;SDS011;49320;52.512;13.448;2023-04-25T14:12:12;4.60;;;1.80;;
63218;SDS011;49320;52.512;13.448;2023-04-25T14:14:38;3.90;;;1.40;;
63218;SDS011;49320;52.512;13.448;2023-04-25T14:17:05;3.85;;;1.80;;
63218;SDS011;49320;52.512;13.448;2023-04-25T14:19:32;4.75;;;1.55;;
63218;SDS011;49320;52.512;13.448;2023-04-25T14:22:00;5.35;;;1.50;;
63218;SDS011;49320;52.512;13.448;2023-04-25T14:24:26;4.13;;;1.48;;
63218;SDS011;49320;52.512;13.448;2023-04-25T14:26:53;5.93;;;1.65;;
63218;SDS011;49320;52.512;13.448;2023-04-25T14:29:20;7.68;;;1.45;;
63218;SDS011;49320;52.512;13.448;2023-04-25T14:31:47;3.72;;;1.70;;
63218;SDS011;49320;52.512;13.448;2023-04-25T14:34:14;3.33;;;1.38;;
63218;SDS011;49320;52.512;13.448;2023-04-25T14:36:41;4.72;;;1.67;;
63218;SDS011;49320;52.512;13.448;2023-04-25T14:39:08;3.30;;;1.45;;
63218;SDS011;49320;52.512;13.448;2023-04-25T14:41:36;2.50;;;1.27;;
63218;SDS011;49320;52.512;13.448;2023-04-25T14:44:03;5.80;;;1.60;;